Time;durP1;ratioP1;P1;durP2;ratioP2;P2;SDS_P1;SDS_P2;PMS_P1;PMS_P2;Temp;Humidity;BMP_temperature;BMP_pressure;BME280_temperature;BME280_humidity;BME280_pressure;Samples;Min_cycle;Max_cycle;Signal;HPM_P1;HPM_P2
2022/12/10 00:00:51;;;;;;;18.30;12.15;;;7.40;99.90;;;;;;5112640;28;20023;-59
2022/12/10 00:03:17;;;;;;;21.02;12.68;;;7.40;99.90;;;;;;5112428;28;20038;-60
2022/12/10 00:05:43;;;;;;;20.05;13.13;;;7.40;99.90;;;;;;5112546;28;20023;-61
2022/12/10 00:08:08;;;;;;;16.88;12.20;;;7.50;99.90;;;;;;5111860;28;20031;-59
2022/12/10 00:10:34;;;;;;;18.70;12.32;;;7.60;99.90;;;;;;5112425;28;20020;-57
2022/12/10 00:12:59;;;;;;;17.90;11.80;;;7.60;99.90;;;;;;5112130;28;20038;-56
2022/12/10 00:15:25;;;;;;;17.33;11.73;;;7.70;99.90;;;;;;5112389;28;20051;-59
2022/12/10 00:17:50;;;;;;;19.50;12.60;;;7.70;99.90;;;;;;5111837;28;20477;-59
2022/12/10 00:20:16;;;;;;;19.23;12.55;;;7.70;99.90;;;;;;5112045;28;20039;-57
2022/12/10 00:22:42;;;;;;;17.65;11.73;;;7.80;99.90;;;;;;5112219;28;20016;-58
2022/12/10 00:25:07;;;;;;;19.58;12.65;;;7.80;99.90;;;;;;5110884;28;20481;-60
2022/12/10 00:27:33;;;;;;;16.50;11.52;;;7.80;99.90;;;;;;5111932;28;20149;-60
2022/12/10 00:29:59;;;;;;;18.65;12.20;;;7.80;99.90;;;;;;5111647;28;20064;-60
2022/12/10 00:32:24;;;;;;;15.70;11.20;;;7.70;99.90;;;;;;5111879;28;20023;-56
2022/12/10 00:34:50;;;;;;;19.05;12.15;;;7.70;99.90;;;;;;5111943;28;20444;-60
2022/12/10 00:37:15;;;;;;;16.20;11.40;;;7.70;99.90;;;;;;5111789;28;20549;-58
2022/12/10 00:39:41;;;;;;;15.52;10.98;;;7.70;99.90;;;;;;5111359;28;20030;-58
2022/12/10 00:42:07;;;;;;;16.70;11.30;;;7.60;99.90;;;;;;5112097;28;20384;-57
2022/12/10 00:44:32;;;;;;;16.60;11.52;;;7.60;99.90;;;;;;5111810;28;20419;-58
2022/12/10 00:46:58;;;;;;;16.50;11.23;;;7.60;99.90;;;;;;5110499;28;20074;-58
2022/12/10 00:49:24;;;;;;;15.07;11.32;;;7.50;99.90;;;;;;5109920;28;20500;-59
2022/12/10 00:51:50;;;;;;;18.13;11.40;;;7.50;99.90;;;;;;5111750;28;20534;-56
2022/12/10 00:54:15;;;;;;;17.05;11.75;;;7.50;99.90;;;;;;5111611;28;20114;-59
2022/12/10 00:56:41;;;;;;;19.83;12.23;;;7.50;99.90;;;;;;5111598;28;20111;-60
2022/12/10 00:59:07;;;;;;;17.02;12.02;;;7.40;99.90;;;;;;5111070;28;20062;-59
2022/12/10 01:01:39;;;;;;;17.02;11.35;;;7.40;99.90;;;;;;5111440;28;20061;-61
2022/12/10 01:04:10;;;;;;;16.40;11.75;;;7.40;99.90;;;;;;5093413;28;20020;-61
2022/12/10 01:06:42;;;;;;;19.60;12.50;;;7.40;99.90;;;;;;5111494;28;20023;-61
2022/12/10 01:09:10;;;;;;;18.58;12.68;;;7.50;99.90;;;;;;5110978;28;20028;-58
2022/12/10 01:11:38;;;;;;;18.17;12.80;;;7.60;99.90;;;;;;5111482;28;20055;-58
2022/12/10 01:14:06;;;;;;;16.45;11.23;;;7.70;99.90;;;;;;5111101;28;20035;-58
2022/12/10 01:16:31;;;;;;;20.35;12.35;;;7.70;99.90;;;;;;5111319;28;20019;-59
2022/12/10 01:18:58;;;;;;;17.05;12.13;;;7.70;99.90;;;;;;5110867;28;20496;-55
2022/12/10 01:21:25;;;;;;;17.73;12.23;;;7.80;99.90;;;;;;5111346;28;20020;-59
2022/12/10 01:23:52;;;;;;;19.20;12.00;;;7.70;99.90;;;;;;5111427;28;20031;-60
2022/12/10 01:26:24;;;;;;;17.02;12.18;;;7.80;99.90;;;;;;5113756;28;20362;-58
2022/12/10 01:28:50;;;;;;;16.83;11.88;;;7.70;99.90;;;;;;5115004;28;20058;-60
2022/12/10 01:31:21;;;;;;;17.17;11.77;;;7.80;99.90;;;;;;5115525;28;20080;-60
2022/12/10 01:33:48;;;;;;;16.95;11.70;;;7.70;99.90;;;;;;5115463;28;20503;-61
2022/12/10 01:36:19;;;;;;;16.15;11.65;;;7.70;99.90;;;;;;5114086;28;20057;-61
2022/12/10 01:38:45;;;;;;;16.10;12.00;;;7.70;99.90;;;;;;5114956;28;20062;-60
2022/12/10 01:41:16;;;;;;;17.77;11.98;;;7.60;99.90;;;;;;5115196;28;20078;-61
2022/12/10 01:43:53;;;;;;;19.58;12.27;;;7.70;99.90;;;;;;5115403;28;20319;-59
2022/12/10 01:46:20;;;;;;;16.95;11.50;;;7.60;99.90;;;;;;5115362;28;20076;-58
2022/12/10 01:48:46;;;;;;;15.27;11.32;;;7.60;99.90;;;;;;5113263;28;20035;-59
2022/12/10 01:51:14;;;;;;;17.00;11.38;;;7.50;99.90;;;;;;5115208;28;20030;-56
2022/12/10 01:53:40;;;;;;;19.70;11.70;;;7.50;99.90;;;;;;5114930;28;20031;-59
2022/12/10 01:56:06;;;;;;;17.33;11.68;;;7.50;99.90;;;;;;5115396;28;20050;-59
2022/12/10 01:58:32;;;;;;;16.75;11.80;;;7.50;99.90;;;;;;5114429;28;20059;-58
2022/12/10 02:01:03;;;;;;;16.45;11.45;;;7.40;99.90;;;;;;5115171;28;20023;-61
2022/12/10 02:03:52;;;;;;;18.63;11.98;;;7.40;99.90;;;;;;5114954;28;20096;-59
2022/12/10 02:06:37;;;;;;;18.25;11.85;;;7.40;99.90;;;;;;5114742;28;20538;-60
2022/12/10 02:09:14;;;;;;;19.60;12.38;;;7.50;99.90;;;;;;5114336;28;20083;-59
2022/12/10 02:11:51;;;;;;;17.38;11.35;;;7.60;99.90;;;;;;5114794;28;20032;-59
2022/12/10 02:14:29;;;;;;;16.25;12.23;;;7.70;99.90;;;;;;5114642;28;20047;-61
2022/12/10 02:17:01;;;;;;;17.00;11.68;;;7.70;99.90;;;;;;5114650;28;20102;-60
2022/12/10 02:19:57;;;;;;;16.33;11.73;;;7.70;99.90;;;;;;5114330;28;20026;-59
2022/12/10 02:22:27;;;;;;;17.80;11.27;;;7.70;99.90;;;;;;5114593;28;20027;-58
2022/12/10 02:24:54;;;;;;;16.10;11.65;;;7.80;99.90;;;;;;5113029;28;20035;-58
2022/12/10 02:27:34;;;;;;;18.65;11.63;;;7.80;99.90;;;;;;5113020;28;20031;-56
2022/12/10 02:30:01;;;;;;;16.30;11.60;;;7.70;99.90;;;;;;5114011;27;20038;-60
2022/12/10 02:32:36;;;;;;;16.33;11.63;;;7.70;99.90;;;;;;5114335;28;20066;-60
2022/12/10 02:35:06;;;;;;;14.43;10.43;;;7.70;99.90;;;;;;5114316;28;20024;-58
2022/12/10 02:37:36;;;;;;;15.25;10.77;;;7.70;99.90;;;;;;5114284;28;20022;-61
2022/12/10 02:40:09;;;;;;;16.83;11.73;;;7.60;99.90;;;;;;5113751;28;20437;-60
2022/12/10 02:42:39;;;;;;;15.65;11.18;;;7.60;99.90;;;;;;5114303;28;20023;-60
2022/12/10 02:45:07;;;;;;;16.67;11.27;;;7.60;99.90;;;;;;5114211;28;20120;-59
2022/12/10 02:47:34;;;;;;;16.50;11.43;;;7.50;99.90;;;;;;5113999;28;20031;-57
2022/12/10 02:50:00;;;;;;;17.02;11.88;;;7.50;99.90;;;;;;5113534;28;20073;-58
2022/12/10 02:52:26;;;;;;;16.17;11.27;;;7.50;99.90;;;;;;5114060;28;20388;-58
2022/12/10 02:54:53;;;;;;;16.38;11.43;;;7.50;99.90;;;;;;5113996;28;20102;-59
2022/12/10 02:57:49;;;;;;;17.52;10.85;;;7.40;99.90;;;;;;5113861;28;20054;-58
2022/12/10 03:00:18;;;;;;;15.45;11.05;;;7.40;99.90;;;;;;5113511;28;20127;-59
2022/12/10 03:03:02;;;;;;;17.23;11.70;;;7.40;99.90;;;;;;5113824;28;20108;-60
2022/12/10 03:05:40;;;;;;;16.23;11.57;;;7.40;99.90;;;;;;5113865;28;20153;-56
2022/12/10 03:08:42;;;;;;;16.38;11.65;;;7.50;99.90;;;;;;5113270;28;20099;-59
2022/12/10 03:11:13;;;;;;;14.73;10.75;;;7.50;99.90;;;;;;5113736;28;20028;-58
2022/12/10 03:14:09;;;;;;;17.95;12.20;;;7.60;99.90;;;;;;5113487;28;20027;-58
2022/12/10 03:16:47;;;;;;;18.52;11.38;;;7.70;99.90;;;;;;5113611;28;20023;-59
2022/12/10 03:19:20;;;;;;;15.77;10.68;;;7.70;99.90;;;;;;5112999;28;20050;-58
2022/12/10 03:21:48;;;;;;;17.00;11.75;;;7.70;99.90;;;;;;5113494;28;20023;-56
2022/12/10 03:24:15;;;;;;;16.70;11.60;;;7.70;99.90;;;;;;5113405;28;20031;-60
2022/12/10 03:26:43;;;;;;;15.73;11.23;;;7.70;99.90;;;;;;5113361;28;20139;-58
2022/12/10 03:29:14;;;;;;;17.35;11.27;;;7.70;99.90;;;;;;5112744;28;20072;-59
2022/12/10 03:31:41;;;;;;;16.33;11.18;;;7.70;99.90;;;;;;5113154;28;20035;-61
2022/12/10 03:34:09;;;;;;;15.25;10.95;;;7.70;99.90;;;;;;5111895;28;20063;-59
2022/12/10 03:36:35;;;;;;;17.98;11.73;;;7.70;99.90;;;;;;5113149;28;20115;-58
2022/12/10 03:39:01;;;;;;;15.90;10.82;;;7.70;99.90;;;;;;5112618;28;20028;-59
2022/12/10 03:41:27;;;;;;;15.88;11.15;;;7.60;99.90;;;;;;5112959;28;20031;-58
2022/12/10 03:43:55;;;;;;;19.35;12.55;;;7.60;99.90;;;;;;5113056;27;20024;-59
2022/12/10 03:46:22;;;;;;;18.27;11.02;;;7.60;99.90;;;;;;5112864;28;20035;-60
2022/12/10 03:48:48;;;;;;;15.50;10.75;;;7.60;99.90;;;;;;5111991;28;20024;-61
2022/12/10 03:51:14;;;;;;;15.70;10.68;;;7.50;99.90;;;;;;5113080;28;20481;-57
2022/12/10 03:53:40;;;;;;;16.75;11.15;;;7.50;99.90;;;;;;5111754;28;20054;-58
2022/12/10 03:56:06;;;;;;;15.60;11.18;;;7.50;99.90;;;;;;5112907;28;20401;-59
2022/12/10 03:58:32;;;;;;;16.05;11.15;;;7.40;99.90;;;;;;5111948;28;20023;-59
2022/12/10 04:00:57;;;;;;;16.23;12.02;;;7.40;99.90;;;;;;5112979;28;20019;-59
2022/12/10 04:03:23;;;;;;;15.88;11.32;;;7.40;99.90;;;;;;5111376;28;20381;-58
2022/12/10 04:05:48;;;;;;;15.57;11.35;;;7.40;99.90;;;;;;5112603;28;20031;-59
2022/12/10 04:08:14;;;;;;;16.10;11.73;;;7.50;99.90;;;;;;5111988;28;20026;-59
2022/12/10 04:10:40;;;;;;;16.13;11.27;;;7.50;99.90;;;;;;5112485;28;20106;-59
2022/12/10 04:18:34;;;;;;;14.82;11.18;;;7.70;99.90;;;;;;5111821;28;20043;-61
2022/12/10 04:29:12;;;;;;;16.13;11.48;;;7.80;99.90;;;;;;5112251;28;20030;-60
2022/12/10 04:31:38;;;;;;;15.90;11.13;;;7.70;99.90;;;;;;5112177;28;20481;-61
2022/12/10 04:34:04;;;;;;;15.00;11.10;;;7.70;99.90;;;;;;5111807;28;20020;-60
2022/12/10 04:36:29;;;;;;;16.48;11.23;;;7.70;99.90;;;;;;5111908;28;20032;-60
2022/12/10 04:38:55;;;;;;;16.08;10.93;;;7.70;99.90;;;;;;5111469;28;20102;-58
2022/12/10 04:41:20;;;;;;;17.33;11.63;;;7.70;99.90;;;;;;5111911;28;20527;-59
2022/12/10 04:43:46;;;;;;;16.15;11.05;;;7.60;99.90;;;;;;5111851;28;20024;-57
2022/12/10 04:46:12;;;;;;;15.57;11.05;;;7.60;99.90;;;;;;5111856;28;20488;-59
2022/12/10 04:48:37;;;;;;;14.98;11.77;;;7.60;99.90;;;;;;5111127;28;20097;-57
2022/12/10 04:51:04;;;;;;;17.17;10.50;;;7.50;99.90;;;;;;5111907;28;20023;-58
2022/12/10 04:53:29;;;;;;;14.40;10.35;;;7.50;99.90;;;;;;5111806;28;20034;-58
2022/12/10 04:55:55;;;;;;;16.33;11.88;;;7.50;99.90;;;;;;5111634;28;20020;-60
2022/12/10 04:58:20;;;;;;;15.32;10.65;;;7.50;99.90;;;;;;5111121;28;20137;-61
2022/12/10 05:00:46;;;;;;;16.27;11.30;;;7.40;99.90;;;;;;5110731;28;20401;-61
2022/12/10 05:03:12;;;;;;;15.98;10.85;;;7.40;99.90;;;;;;5111533;28;20020;-61
2022/12/10 05:05:37;;;;;;;15.88;10.98;;;7.40;99.90;;;;;;5111615;28;20393;-59
2022/12/10 05:08:04;;;;;;;14.43;11.20;;;7.50;99.90;;;;;;5110938;28;20023;-59
2022/12/10 05:10:30;;;;;;;15.80;10.98;;;7.50;99.90;;;;;;5111484;28;20016;-57
2022/12/10 05:12:55;;;;;;;16.17;11.35;;;7.60;99.90;;;;;;5111562;28;20023;-56
2022/12/10 05:15:22;;;;;;;17.98;11.60;;;7.70;99.90;;;;;;5111455;28;20487;-58
2022/12/10 05:17:47;;;;;;;15.70;11.45;;;7.70;99.90;;;;;;5111592;28;20027;-58
2022/12/10 05:20:13;;;;;;;15.30;10.55;;;7.80;99.90;;;;;;5111415;28;20020;-59
2022/12/10 05:25:22;;;;;;;15.63;10.60;;;7.80;99.90;;;;;;5111511;28;20039;-59
2022/12/10 05:27:48;;;;;;;14.82;10.77;;;7.80;99.90;;;;;;5110983;28;20401;-60
2022/12/10 05:30:14;;;;;;;16.02;10.80;;;7.80;99.90;;;;;;5111424;28;20035;-58
2022/12/10 05:32:39;;;;;;;15.20;10.82;;;7.70;99.90;;;;;;5111287;28;20055;-60
2022/12/10 05:35:05;;;;;;;15.55;10.65;;;7.70;99.90;;;;;;5111130;28;20477;-60
2022/12/10 05:37:31;;;;;;;16.65;11.13;;;7.70;99.90;;;;;;5110988;28;20036;-60
2022/12/10 05:39:57;;;;;;;17.33;11.10;;;7.70;99.90;;;;;;5110669;28;20042;-59
2022/12/10 05:42:22;;;;;;;16.52;11.32;;;7.60;99.90;;;;;;5111189;28;20034;-56
2022/12/10 05:44:48;;;;;;;14.20;10.85;;;7.60;99.90;;;;;;5111018;28;20408;-59
2022/12/10 05:47:13;;;;;;;17.58;11.50;;;7.60;99.90;;;;;;5111068;28;20588;-57
2022/12/10 05:49:39;;;;;;;15.63;11.15;;;7.50;99.90;;;;;;5109577;28;20380;-57
2022/12/10 05:52:05;;;;;;;16.73;11.75;;;7.50;99.90;;;;;;5111086;28;20099;-60
2022/12/10 05:54:30;;;;;;;15.20;10.77;;;7.50;99.90;;;;;;5111002;28;20023;-59
2022/12/10 05:56:56;;;;;;;16.55;11.07;;;7.50;99.90;;;;;;5111066;28;20028;-60
2022/12/10 05:59:22;;;;;;;14.15;10.77;;;7.40;99.90;;;;;;5110446;28;20024;-57
2022/12/10 06:01:47;;;;;;;16.40;11.35;;;7.40;99.90;;;;;;5110986;28;20528;-61
2022/12/10 06:04:13;;;;;;;18.98;12.02;;;7.40;99.90;;;;;;5110971;28;20508;-60
2022/12/10 06:06:40;;;;;;;16.40;11.75;;;7.50;99.90;;;;;;5110905;28;20153;-55
2022/12/10 06:09:10;;;;;;;17.60;12.00;;;7.50;99.90;;;;;;5110357;28;20366;-59
2022/12/10 06:11:35;;;;;;;16.20;11.48;;;7.60;99.90;;;;;;5111967;28;20024;-60
2022/12/10 06:14:02;;;;;;;17.13;11.48;;;7.70;99.90;;;;;;5113470;28;20024;-59
2022/12/10 06:16:28;;;;;;;15.98;11.40;;;7.70;99.90;;;;;;5114686;28;20094;-58
2022/12/10 06:18:54;;;;;;;17.60;12.55;;;7.70;99.90;;;;;;5114349;28;20098;-61
2022/12/10 06:21:20;;;;;;;16.27;11.60;;;7.70;99.90;;;;;;5114436;28;20402;-59
2022/12/10 06:23:48;;;;;;;14.57;10.25;;;7.70;99.90;;;;;;5114534;28;20300;-60
2022/12/10 06:26:16;;;;;;;14.82;10.40;;;7.80;99.90;;;;;;5114537;28;20028;-60
2022/12/10 06:28:45;;;;;;;16.02;10.98;;;7.80;99.90;;;;;;5113828;28;20031;-60
2022/12/10 06:31:11;;;;;;;17.52;11.25;;;7.70;99.90;;;;;;5113450;28;20115;-59
2022/12/10 06:33:37;;;;;;;16.77;11.52;;;7.70;99.90;;;;;;5112942;28;20028;-61
2022/12/10 06:36:07;;;;;;;17.40;11.88;;;7.70;99.90;;;;;;5114348;28;20508;-61
2022/12/10 06:38:33;;;;;;;15.07;10.57;;;7.70;99.90;;;;;;5113653;28;20524;-60
2022/12/10 06:40:59;;;;;;;16.55;10.85;;;7.70;99.90;;;;;;5112792;28;20501;-58
2022/12/10 06:43:28;;;;;;;14.63;10.70;;;7.60;99.90;;;;;;5114131;28;20046;-59
2022/12/10 06:45:54;;;;;;;16.30;11.18;;;7.60;99.90;;;;;;5114192;28;20092;-57
2022/12/10 06:48:19;;;;;;;15.90;11.25;;;7.60;99.90;;;;;;5113795;28;20453;-56
2022/12/10 06:50:45;;;;;;;16.02;11.25;;;7.60;99.90;;;;;;5114050;28;20024;-58
2022/12/10 06:53:10;;;;;;;15.93;11.00;;;7.50;99.90;;;;;;5112674;28;20132;-57
2022/12/10 06:55:38;;;;;;;15.15;10.88;;;7.50;99.90;;;;;;5113856;28;20028;-57
2022/12/10 06:58:04;;;;;;;17.33;11.50;;;7.40;99.90;;;;;;5113468;27;20024;-61
2022/12/10 07:00:29;;;;;;;15.30;10.77;;;7.40;99.90;;;;;;5113967;28;20030;-59
2022/12/10 07:02:55;;;;;;;19.25;12.30;;;7.40;99.90;;;;;;5113822;28;20076;-60
2022/12/10 07:05:21;;;;;;;17.65;11.80;;;7.40;99.90;;;;;;5112487;28;20027;-61
2022/12/10 07:07:46;;;;;;;15.98;11.55;;;7.50;99.90;;;;;;5113511;28;20030;-61
2022/12/10 07:10:12;;;;;;;17.15;12.23;;;7.50;99.90;;;;;;5113236;28;20024;-59
2022/12/10 07:12:38;;;;;;;16.95;11.70;;;7.60;99.90;;;;;;5113642;28;20027;-57
2022/12/10 07:15:05;;;;;;;16.63;11.35;;;7.70;99.90;;;;;;5113534;28;20106;-58
2022/12/10 07:17:30;;;;;;;18.23;11.55;;;7.70;99.90;;;;;;5113333;28;20032;-56
2022/12/10 07:19:56;;;;;;;16.08;11.07;;;7.70;99.90;;;;;;5113064;28;20083;-59
2022/12/10 07:22:21;;;;;;;16.52;11.02;;;7.70;99.90;;;;;;5113255;27;20035;-61
2022/12/10 07:24:48;;;;;;;15.60;11.50;;;7.70;99.90;;;;;;5112540;28;20164;-59
2022/12/10 07:27:14;;;;;;;16.30;11.48;;;7.70;99.90;;;;;;5113280;28;20036;-59
2022/12/10 07:29:40;;;;;;;16.90;11.60;;;7.70;99.90;;;;;;5113033;27;20272;-61
2022/12/10 07:32:05;;;;;;;17.08;11.77;;;7.70;99.90;;;;;;5113256;28;20027;-61
2022/12/10 07:34:31;;;;;;;15.48;11.55;;;7.70;99.90;;;;;;5113251;28;20030;-61
2022/12/10 07:36:56;;;;;;;15.55;11.48;;;7.70;99.90;;;;;;5113110;28;20020;-60
2022/12/10 07:39:22;;;;;;;17.23;11.68;;;7.70;99.90;;;;;;5112503;28;20069;-59
2022/12/10 07:41:52;;;;;;;15.48;11.18;;;7.60;99.90;;;;;;5113198;28;20034;-58
2022/12/10 07:44:20;;;;;;;16.20;10.95;;;7.60;99.90;;;;;;5113010;28;20032;-59
2022/12/10 07:46:47;;;;;;;16.25;11.77;;;7.50;99.90;;;;;;5112992;28;20386;-60
2022/12/10 07:49:13;;;;;;;16.23;11.73;;;7.50;99.90;;;;;;5112549;28;20038;-58
2022/12/10 07:51:38;;;;;;;18.05;11.27;;;7.50;99.90;;;;;;5112980;28;20023;-59
2022/12/10 07:54:04;;;;;;;18.67;12.38;;;7.50;99.90;;;;;;5111379;28;20388;-59
2022/12/10 07:56:30;;;;;;;17.63;11.90;;;7.50;99.90;;;;;;5112802;28;20148;-57
2022/12/10 07:58:55;;;;;;;15.73;11.10;;;7.40;99.90;;;;;;5112301;28;20525;-60
2022/12/10 08:01:24;;;;;;;16.50;11.13;;;7.40;99.90;;;;;;5112864;27;20016;-58
2022/12/10 08:03:50;;;;;;;15.50;11.35;;;7.40;99.90;;;;;;5112691;28;20031;-60
2022/12/10 08:06:19;;;;;;;16.85;11.60;;;7.40;99.90;;;;;;5112505;28;20120;-61
2022/12/10 08:08:45;;;;;;;16.65;11.65;;;7.40;99.90;;;;;;5111897;28;20077;-56
2022/12/10 08:11:12;;;;;;;17.73;12.07;;;7.40;99.90;;;;;;5112664;28;20029;-57
2022/12/10 08:13:38;;;;;;;17.35;12.15;;;7.40;99.90;;;;;;5112451;28;20024;-59
2022/12/10 08:16:07;;;;;;;16.55;11.35;;;7.30;99.90;;;;;;5112891;28;20020;-61
2022/12/10 08:18:34;;;;;;;16.58;12.00;;;7.30;99.90;;;;;;5111661;28;20028;-56
2022/12/10 08:21:05;;;;;;;14.80;10.98;;;7.30;99.90;;;;;;5111111;28;20024;-58
2022/12/10 08:23:30;;;;;;;19.13;12.15;;;7.30;99.90;;;;;;5112319;28;20038;-59
2022/12/10 08:25:56;;;;;;;16.48;11.77;;;7.30;99.90;;;;;;5112209;28;20027;-61
2022/12/10 08:28:22;;;;;;;15.60;11.10;;;7.30;99.90;;;;;;5111617;28;20039;-60
2022/12/10 08:30:48;;;;;;;16.70;12.13;;;7.30;99.90;;;;;;5110833;28;20027;-60
2022/12/10 08:33:14;;;;;;;17.65;11.95;;;7.30;99.90;;;;;;5112106;28;20024;-60
2022/12/10 08:35:39;;;;;;;17.63;11.93;;;7.30;99.90;;;;;;5111617;28;20435;-60
2022/12/10 08:38:05;;;;;;;15.23;11.32;;;7.30;99.90;;;;;;5111499;28;20114;-61
2022/12/10 08:40:31;;;;;;;17.45;11.90;;;7.30;99.90;;;;;;5111818;28;20119;-55
2022/12/10 08:42:56;;;;;;;17.35;11.90;;;7.30;99.90;;;;;;5111953;28;20016;-59
2022/12/10 08:45:22;;;;;;;16.45;11.25;;;7.30;99.90;;;;;;5111860;28;20081;-55
2022/12/10 08:47:47;;;;;;;17.80;11.63;;;7.30;99.90;;;;;;5111578;28;20027;-59
2022/12/10 08:50:13;;;;;;;14.38;10.95;;;7.30;99.90;;;;;;5111513;28;20084;-58
2022/12/10 08:52:39;;;;;;;16.40;11.73;;;7.30;99.90;;;;;;5111756;28;20076;-59
2022/12/10 08:55:05;;;;;;;17.02;11.27;;;7.30;99.90;;;;;;5111705;28;20032;-58
2022/12/10 08:57:30;;;;;;;16.80;11.80;;;7.30;99.90;;;;;;5111858;28;20104;-58
2022/12/10 08:59:56;;;;;;;15.27;11.23;;;7.30;99.90;;;;;;5111309;28;20123;-58
2022/12/10 09:02:22;;;;;;;17.30;12.20;;;7.30;99.90;;;;;;5111676;28;20043;-59
2022/12/10 09:04:49;;;;;;;14.88;10.85;;;7.30;99.90;;;;;;5111431;28;20027;-60
2022/12/10 09:07:15;;;;;;;14.95;10.70;;;7.30;99.90;;;;;;5111518;28;20027;-58
2022/12/10 09:09:40;;;;;;;15.88;12.07;;;7.30;99.90;;;;;;5111077;28;20031;-58
2022/12/10 09:12:06;;;;;;;16.90;11.68;;;7.30;99.90;;;;;;5110212;28;20020;-58
2022/12/10 09:14:32;;;;;;;17.67;11.02;;;7.30;99.90;;;;;;5111427;28;20027;-60
2022/12/10 09:16:58;;;;;;;14.82;10.75;;;7.30;99.90;;;;;;5111407;28;20020;-60
2022/12/10 09:19:23;;;;;;;17.38;11.35;;;7.30;99.90;;;;;;5110744;28;20381;-60
2022/12/10 09:21:49;;;;;;;15.80;11.50;;;7.20;99.90;;;;;;5111353;28;20031;-58
2022/12/10 09:24:14;;;;;;;15.02;10.95;;;7.20;99.90;;;;;;5111425;28;20092;-59
2022/12/10 09:26:40;;;;;;;16.70;12.00;;;7.20;99.90;;;;;;5111326;28;20116;-58
2022/12/10 09:29:05;;;;;;;16.45;12.35;;;7.20;99.90;;;;;;5109460;28;20526;-60
2022/12/10 09:31:31;;;;;;;15.25;11.77;;;7.20;99.90;;;;;;5111324;28;20423;-59
2022/12/10 09:33:57;;;;;;;15.95;11.10;;;7.20;99.90;;;;;;5111109;28;20120;-59
2022/12/10 09:36:22;;;;;;;16.70;11.98;;;7.20;99.90;;;;;;5111169;28;20024;-61
2022/12/10 09:38:49;;;;;;;17.95;11.82;;;7.20;99.90;;;;;;5110834;28;20125;-56
2022/12/10 09:41:41;;;;;;;15.98;11.40;;;7.20;99.90;;;;;;5111174;28;20027;-60
2022/12/10 09:44:32;;;;;;;16.25;11.23;;;7.20;99.90;;;;;;5111302;28;20023;-57
2022/12/10 09:47:00;;;;;;;16.60;11.23;;;7.20;99.90;;;;;;5112932;28;20430;-60
2022/12/10 09:50:06;;;;;;;16.73;11.40;;;7.20;99.90;;;;;;5114703;28;20028;-60
2022/12/10 09:52:41;;;;;;;16.52;11.18;;;7.20;99.90;;;;;;5115385;28;20024;-59
2022/12/10 09:55:17;;;;;;;17.70;12.13;;;7.20;99.90;;;;;;5113862;28;20036;-60
2022/12/10 09:57:48;;;;;;;17.00;11.88;;;7.30;99.90;;;;;;5115205;28;20031;-62
2022/12/10 10:00:20;;;;;;;16.90;11.38;;;7.20;99.90;;;;;;5115060;28;20019;-62
2022/12/10 10:02:46;;;;;;;16.35;12.40;;;7.20;99.90;;;;;;5115297;28;20059;-60
2022/12/10 10:05:36;;;;;;;17.98;12.13;;;7.30;99.90;;;;;;5115174;27;20477;-61
2022/12/10 10:08:14;;;;;;;17.02;11.35;;;7.20;99.90;;;;;;5106954;28;20067;-61
2022/12/10 10:10:41;;;;;;;16.33;11.40;;;7.20;99.90;;;;;;5115121;28;20028;-59
2022/12/10 10:13:07;;;;;;;17.70;11.50;;;7.20;99.90;;;;;;5115027;28;20035;-60
2022/12/10 10:15:35;;;;;;;15.93;11.32;;;7.20;99.90;;;;;;5114909;28;20020;-62
2022/12/10 10:18:38;;;;;;;15.32;11.20;;;7.20;99.90;;;;;;5114464;27;20028;-59
2022/12/10 10:21:19;;;;;;;16.33;11.15;;;7.20;99.90;;;;;;5115313;28;20026;-60
2022/12/10 10:23:46;;;;;;;15.63;10.95;;;7.20;99.90;;;;;;5114878;28;20561;-61
2022/12/10 10:26:11;;;;;;;15.95;11.20;;;7.20;99.90;;;;;;5114757;27;20039;-60
2022/12/10 10:28:40;;;;;;;15.15;11.15;;;7.20;99.90;;;;;;5114200;28;20023;-60
2022/12/10 10:31:19;;;;;;;15.38;11.45;;;7.20;99.90;;;;;;5114802;28;20030;-60
2022/12/10 10:33:56;;;;;;;16.98;11.52;;;7.30;99.90;;;;;;5114506;28;20036;-61
2022/12/10 10:36:24;;;;;;;17.45;11.98;;;7.20;99.90;;;;;;5114470;28;20027;-60
2022/12/10 10:38:50;;;;;;;15.77;10.52;;;7.20;99.90;;;;;;5114064;28;20354;-60
2022/12/10 10:41:16;;;;;;;14.82;10.63;;;7.30;99.90;;;;;;5112965;28;20478;-60
2022/12/10 10:43:47;;;;;;;16.45;11.50;;;7.20;99.90;;;;;;5114392;28;20032;-61
2022/12/10 10:46:14;;;;;;;15.55;11.52;;;7.20;99.90;;;;;;5114425;28;20027;-60
2022/12/10 10:48:40;;;;;;;16.75;10.90;;;7.30;99.90;;;;;;5113764;28;20031;-62
2022/12/10 10:51:11;;;;;;;15.93;10.93;;;7.20;99.90;;;;;;5114171;28;20389;-62
2022/12/10 10:53:46;;;;;;;16.70;10.82;;;7.30;99.90;;;;;;5114160;28;20019;-62
2022/12/10 10:56:24;;;;;;;16.08;11.23;;;7.30;99.90;;;;;;5114231;28;20446;-62
2022/12/10 10:59:06;;;;;;;15.27;10.40;;;7.30;99.90;;;;;;5112173;28;20556;-62
2022/12/10 11:01:54;;;;;;;15.60;11.38;;;7.30;99.90;;;;;;5114059;27;20032;-61
2022/12/10 11:04:53;;;;;;;16.58;11.40;;;7.20;99.90;;;;;;5114012;28;20020;-62
2022/12/10 11:07:34;;;;;;;14.68;10.70;;;7.30;99.90;;;;;;5113860;28;20027;-61
2022/12/10 11:10:01;;;;;;;14.93;10.50;;;7.30;99.90;;;;;;5111951;28;20035;-61
2022/12/10 11:12:41;;;;;;;14.68;10.88;;;7.30;99.90;;;;;;5113848;28;20027;-62
2022/12/10 11:15:35;;;;;;;15.25;10.70;;;7.30;99.90;;;;;;5113927;28;20468;-62
2022/12/10 11:18:02;;;;;;;14.25;10.77;;;7.30;99.90;;;;;;5111791;28;20449;-62
2022/12/10 11:20:34;;;;;;;15.65;10.95;;;7.30;99.90;;;;;;5113477;28;20032;-62
2022/12/10 11:23:07;;;;;;;16.80;11.20;;;7.30;99.90;;;;;;5113663;28;20031;-61
2022/12/10 11:26:08;;;;;;;15.52;10.40;;;7.30;99.90;;;;;;5113698;28;20060;-62
2022/12/10 11:28:39;;;;;;;13.70;10.38;;;7.30;99.90;;;;;;5109878;28;20131;-62
2022/12/10 11:31:15;;;;;;;15.27;10.82;;;7.30;99.90;;;;;;5113596;28;20384;-62
2022/12/10 11:34:08;;;;;;;15.45;11.07;;;7.20;99.90;;;;;;5113340;28;20038;-62
2022/12/10 11:36:41;;;;;;;16.70;10.85;;;7.30;99.90;;;;;;5113194;28;20507;-61
2022/12/10 11:39:26;;;;;;;15.10;10.95;;;7.30;99.90;;;;;;5112795;28;20031;-62
2022/12/10 11:41:58;;;;;;;15.95;11.05;;;7.30;99.90;;;;;;5113535;27;20033;-62
2022/12/10 11:44:32;;;;;;;16.27;11.30;;;7.30;99.90;;;;;;5113207;28;20528;-61
2022/12/10 11:47:13;;;;;;;14.77;11.10;;;7.30;99.90;;;;;;5111716;28;20030;-62
2022/12/10 11:50:06;;;;;;;13.35;10.02;;;7.30;99.90;;;;;;5113213;28;20023;-62
2022/12/10 11:53:09;;;;;;;23.58;16.50;;;7.30;99.90;;;;;;5093727;28;20036;-58
2022/12/10 11:55:45;;;;;;;21.02;15.63;;;7.20;99.90;;;;;;5112966;28;20023;-57
2022/12/10 11:58:16;;;;;;;23.85;16.50;;;7.10;99.90;;;;;;5112445;28;20030;-56
2022/12/10 12:01:06;;;;;;;21.40;16.15;;;7.00;99.90;;;;;;5113001;28;20051;-57
2022/12/10 12:04:03;;;;;;;22.67;15.63;;;7.00;99.90;;;;;;5113172;27;20416;-56
2022/12/10 12:07:00;;;;;;;20.95;14.65;;;7.00;99.90;;;;;;5075764;28;20130;-58
2022/12/10 12:09:57;;;;;;;20.80;14.90;;;7.00;99.90;;;;;;5112054;28;20189;-54
2022/12/10 12:12:44;;;;;;;22.50;15.00;;;7.00;99.90;;;;;;5111592;28;20023;-57
2022/12/10 12:15:21;;;;;;;20.63;14.73;;;7.00;99.90;;;;;;5112924;28;20042;-55
2022/12/10 12:18:00;;;;;;;20.90;15.00;;;7.00;99.90;;;;;;5112498;28;20024;-58
2022/12/10 12:20:34;;;;;;;19.52;13.90;;;7.00;99.90;;;;;;5112433;28;20023;-59
2022/12/10 12:23:29;;;;;;;20.25;14.93;;;7.10;99.90;;;;;;5111262;28;20019;-56
2022/12/10 12:26:07;;;;;;;18.40;14.00;;;7.10;99.90;;;;;;5112766;27;20028;-58
2022/12/10 12:28:57;;;;;;;24.08;15.23;;;7.10;99.90;;;;;;5111809;28;20027;-56
2022/12/10 12:31:34;;;;;;;20.55;14.18;;;7.10;99.90;;;;;;5112668;28;20020;-55
2022/12/10 12:34:21;;;;;;;21.35;14.45;;;7.10;99.90;;;;;;5112121;28;20512;-56
2022/12/10 12:36:48;;;;;;;19.90;14.05;;;7.10;99.90;;;;;;5112111;28;20504;-55
2022/12/10 12:39:52;;;;;;;18.38;13.85;;;7.10;99.90;;;;;;5111511;28;20024;-56
2022/12/10 12:42:40;;;;;;;18.55;12.98;;;7.10;99.90;;;;;;5112123;28;20485;-59
2022/12/10 12:45:20;;;;;;;18.85;12.60;;;7.10;99.90;;;;;;5111996;28;20119;-60
2022/12/10 12:48:28;;;;;;;18.55;12.82;;;7.10;99.90;;;;;;5111656;28;20039;-58
2022/12/10 12:51:10;;;;;;;17.15;12.60;;;7.20;99.90;;;;;;5106776;28;20039;-59
2022/12/10 12:53:36;;;;;;;19.58;13.32;;;7.20;99.90;;;;;;5111785;28;20050;-57
2022/12/10 12:56:17;;;;;;;17.55;12.43;;;7.20;99.90;;;;;;5111818;28;20495;-60
2022/12/10 12:58:49;;;;;;;18.13;13.13;;;7.20;99.90;;;;;;5111246;28;20026;-58
2022/12/10 13:01:27;;;;;;;16.65;12.38;;;7.20;99.90;;;;;;5111769;28;20061;-59
2022/12/10 13:03:54;;;;;;;16.58;11.68;;;7.20;99.90;;;;;;5111829;28;20039;-58
2022/12/10 13:06:25;;;;;;;17.85;12.23;;;7.20;99.90;;;;;;5110508;28;20080;-58
2022/12/10 13:09:12;;;;;;;17.27;12.30;;;7.20;99.90;;;;;;5111361;28;20434;-59